CO56 weather

Jjs Airport
Keenesburg, Colorado, United States

Public forecast

Using degrees Fahrenheit for public forecast. Weather courtesy of forecast.io.

METAR (pilot weather report)

Closest report is Front Range Airport, 11.4 nm (21.0 km) SSW. Retrieved 2019/04/23 14:50 UTC (52 minutes ago):

KFTG 231450Z 17007KT 10SM SCT016 OVC025 09/05 A3018

TAF (pilot weather forecast)

Closest forecast is Denver International Airport, 11.5 nm (21.2 km) WSW. Retrieved 2019/04/23 12:36 UTC (3 hours ago):

TAF KDEN 231133Z 2312/2418 13007KT P6SM OVC027 FM231400 16006KT P6SM BKN035 BKN040 FM231600 21007KT P6SM SCT045 SCT100 FM232000 05008KT P6SM SCT070 FM240400 20010KT P6SM SKC FM241400 24008KT P6SM SKC